createdAt,value
2019-03-22T00:00:44.026Z,17.42
2019-03-22T00:01:46.264Z,17.41
2019-03-22T00:02:48.455Z,17.42
2019-03-22T00:03:50.658Z,17.42
2019-03-22T00:04:52.864Z,17.43
2019-03-22T00:05:55.079Z,17.43
2019-03-22T00:06:57.364Z,17.41
2019-03-22T00:07:59.510Z,17.41
2019-03-22T00:09:01.843Z,17.41
2019-03-22T00:10:04.035Z,17.42
2019-03-22T00:11:06.243Z,17.41
2019-03-22T00:12:08.477Z,17.41
2019-03-22T00:13:10.666Z,17.41
2019-03-22T00:14:12.787Z,17.41
2019-03-22T00:15:15.005Z,17.41
2019-03-22T00:16:17.191Z,17.40
2019-03-22T00:17:19.407Z,17.41
2019-03-22T00:18:21.647Z,17.41
2019-03-22T00:19:23.873Z,17.40
2019-03-22T00:20:26.066Z,17.40
2019-03-22T00:21:28.282Z,17.41
2019-03-22T00:22:30.503Z,17.41
2019-03-22T00:23:32.702Z,17.40
2019-03-22T00:24:34.834Z,17.40
2019-03-22T00:25:37.459Z,17.40
2019-03-22T00:26:39.658Z,17.41
2019-03-22T00:27:41.863Z,17.40
2019-03-22T00:28:44.130Z,17.39
2019-03-22T00:29:46.293Z,17.40
2019-03-22T00:30:48.486Z,17.39
2019-03-22T00:31:50.691Z,17.39
2019-03-22T00:32:54.112Z,17.38
2019-03-22T00:33:56.430Z,17.39
2019-03-22T00:34:58.643Z,17.39
2019-03-22T00:36:00.847Z,17.39
2019-03-22T00:37:03.419Z,17.38
2019-03-22T00:38:05.940Z,17.39
2019-03-22T00:39:08.148Z,17.39
2019-03-22T00:40:10.365Z,17.40
2019-03-22T00:41:12.554Z,17.39
2019-03-22T00:42:14.700Z,17.40
2019-03-22T00:43:16.906Z,17.40
2019-03-22T00:44:19.115Z,17.39
2019-03-22T00:45:21.312Z,17.39
2019-03-22T00:46:23.514Z,17.39
2019-03-22T00:47:25.742Z,17.38
2019-03-22T00:48:27.982Z,17.40
2019-03-22T00:49:30.154Z,17.39
2019-03-22T00:50:32.362Z,17.38
2019-03-22T00:51:34.632Z,17.38
2019-03-22T00:52:36.852Z,17.36
2019-03-22T00:53:39.072Z,17.38
2019-03-22T00:54:41.366Z,17.37
2019-03-22T00:55:43.761Z,17.38
2019-03-22T00:56:48.960Z,17.38
2019-03-22T00:57:51.173Z,17.36
2019-03-22T00:58:53.395Z,17.36
2019-03-22T00:59:55.600Z,17.38
2019-03-22T01:00:57.802Z,17.38
2019-03-22T01:02:00.017Z,17.38
2019-03-22T01:03:02.252Z,17.37
2019-03-22T01:04:04.482Z,17.37
2019-03-22T01:05:06.694Z,17.37
2019-03-22T01:06:08.894Z,17.37
2019-03-22T01:07:11.244Z,17.37
2019-03-22T01:08:13.432Z,17.36
2019-03-22T01:09:15.628Z,17.35
2019-03-22T01:10:17.919Z,17.36
2019-03-22T01:11:20.124Z,17.37
2019-03-22T01:12:22.319Z,17.37
2019-03-22T01:13:24.528Z,17.36
2019-03-22T01:14:28.302Z,17.36
2019-03-22T01:15:30.477Z,17.35
2019-03-22T01:16:32.677Z,17.36
2019-03-22T01:17:34.909Z,17.36
2019-03-22T01:18:38.838Z,17.35
2019-03-22T01:19:41.044Z,17.35
2019-03-22T01:20:43.237Z,17.35
2019-03-22T01:21:45.507Z,17.35
2019-03-22T01:22:47.728Z,17.35
2019-03-22T01:23:49.922Z,17.36
2019-03-22T01:24:52.130Z,17.35
2019-03-22T01:25:54.327Z,17.35
2019-03-22T01:26:56.526Z,17.35
2019-03-22T01:27:58.811Z,17.35
2019-03-22T01:29:01.186Z,17.34
2019-03-22T01:30:03.390Z,17.34
2019-03-22T01:31:07.347Z,17.35
2019-03-22T01:32:09.551Z,17.34
2019-03-22T01:33:14.146Z,17.33
2019-03-22T01:34:16.346Z,17.34
2019-03-22T01:35:18.506Z,17.34
2019-03-22T01:36:20.716Z,17.34
2019-03-22T01:37:22.915Z,17.34
2019-03-22T01:38:25.174Z,17.34
2019-03-22T01:39:27.376Z,17.34
2019-03-22T01:40:29.590Z,17.33
2019-03-22T01:41:31.726Z,17.34
2019-03-22T01:42:34.044Z,17.33
2019-03-22T01:43:38.765Z,17.33
2019-03-22T01:44:40.981Z,17.34
2019-03-22T01:45:43.189Z,17.33
2019-03-22T01:46:45.394Z,17.33
2019-03-22T01:47:47.628Z,17.33
2019-03-22T01:48:49.838Z,17.33
2019-03-22T01:49:52.046Z,17.33
2019-03-22T01:50:54.266Z,17.33
2019-03-22T01:51:56.478Z,17.33
2019-03-22T01:52:58.712Z,17.33
2019-03-22T01:54:00.913Z,17.32
2019-03-22T01:55:03.171Z,17.33
2019-03-22T01:56:05.364Z,17.31
2019-03-22T01:57:07.575Z,17.33
2019-03-22T01:58:09.836Z,17.33
2019-03-22T01:59:15.039Z,17.32
2019-03-22T02:00:17.561Z,17.32
2019-03-22T02:01:19.761Z,17.32
2019-03-22T02:02:21.971Z,17.31
2019-03-22T02:03:24.176Z,17.32
2019-03-22T02:04:26.373Z,17.31
2019-03-22T02:05:28.650Z,17.31
2019-03-22T02:06:30.956Z,17.31
2019-03-22T02:07:33.212Z,17.31
2019-03-22T02:08:35.435Z,17.31
2019-03-22T02:09:37.641Z,17.31
2019-03-22T02:10:39.853Z,17.30
2019-03-22T02:11:42.131Z,17.31
2019-03-22T02:12:45.178Z,17.32
2019-03-22T02:13:47.436Z,17.32
2019-03-22T02:14:49.644Z,17.31
2019-03-22T02:15:51.875Z,17.32
2019-03-22T02:16:54.051Z,17.31
2019-03-22T02:17:56.251Z,17.31
2019-03-22T02:18:58.468Z,17.31
2019-03-22T02:20:00.677Z,17.31
2019-03-22T02:21:05.435Z,17.31
2019-03-22T02:22:07.648Z,17.31
2019-03-22T02:23:09.853Z,17.30
2019-03-22T02:24:12.266Z,17.30
2019-03-22T02:25:14.385Z,17.32
2019-03-22T02:26:16.587Z,17.31
2019-03-22T02:27:18.811Z,17.31
2019-03-22T02:28:20.998Z,17.31
2019-03-22T02:29:24.797Z,17.32
2019-03-22T02:30:26.933Z,17.30
2019-03-22T02:31:29.140Z,17.30
2019-03-22T02:32:31.330Z,17.30
2019-03-22T02:33:33.535Z,17.29
2019-03-22T02:34:35.732Z,17.30
2019-03-22T02:35:37.952Z,17.30
2019-03-22T02:36:40.296Z,17.31
2019-03-22T02:37:42.503Z,17.29
2019-03-22T02:38:44.725Z,17.29
2019-03-22T02:39:47.058Z,17.29
2019-03-22T02:40:49.443Z,17.29
2019-03-22T02:41:51.644Z,17.30
2019-03-22T02:42:53.852Z,17.30
2019-03-22T02:43:56.072Z,17.29
2019-03-22T02:44:58.271Z,17.29
2019-03-22T02:46:00.490Z,17.29
2019-03-22T02:47:05.893Z,17.30
2019-03-22T02:48:08.094Z,17.28
2019-03-22T02:49:10.311Z,17.28
2019-03-22T02:50:18.364Z,17.29
2019-03-22T02:51:16.375Z,17.28
2019-03-22T02:52:18.609Z,17.28
2019-03-22T02:53:20.811Z,17.29
2019-03-22T02:54:23.028Z,17.27
2019-03-22T02:55:25.233Z,17.29
2019-03-22T02:56:27.450Z,17.28
2019-03-22T02:57:29.640Z,17.28
2019-03-22T02:58:31.834Z,17.29
2019-03-22T02:59:34.072Z,17.28
2019-03-22T03:00:36.264Z,17.29
2019-03-22T03:01:38.467Z,17.27
2019-03-22T03:02:40.690Z,17.28
2019-03-22T03:03:42.948Z,17.27
2019-03-22T03:04:45.179Z,17.27
2019-03-22T03:05:47.422Z,17.28
2019-03-22T03:06:49.621Z,17.28
2019-03-22T03:07:51.835Z,17.28
2019-03-22T03:08:54.062Z,17.28
2019-03-22T03:09:56.532Z,17.28
2019-03-22T03:10:58.729Z,17.28
2019-03-22T03:12:00.862Z,17.28
2019-03-22T03:13:05.143Z,17.27
2019-03-22T03:14:07.343Z,17.28
2019-03-22T03:15:09.534Z,17.27
2019-03-22T03:16:11.932Z,17.27
2019-03-22T03:17:14.126Z,17.27
2019-03-22T03:18:16.333Z,17.27
2019-03-22T03:19:18.484Z,17.26
2019-03-22T03:20:20.729Z,17.27
2019-03-22T03:21:23.001Z,17.27
2019-03-22T03:22:25.205Z,17.27
2019-03-22T03:23:27.429Z,17.26
2019-03-22T03:24:29.659Z,17.27
2019-03-22T03:25:31.858Z,17.25
2019-03-22T03:26:36.045Z,17.26
2019-03-22T03:27:37.948Z,17.26
2019-03-22T03:28:40.128Z,17.27
2019-03-22T03:29:42.347Z,17.27
2019-03-22T03:30:44.557Z,17.26
2019-03-22T03:31:46.776Z,17.26
2019-03-22T03:32:49.132Z,17.26
2019-03-22T03:33:51.432Z,17.27
2019-03-22T03:34:53.601Z,17.27
2019-03-22T03:35:57.364Z,17.26
2019-03-22T03:36:59.558Z,17.26
2019-03-22T03:38:01.747Z,17.26
2019-03-22T03:39:04.775Z,17.26
2019-03-22T03:40:06.998Z,17.26
2019-03-22T03:41:09.213Z,17.27
2019-03-22T03:42:11.410Z,17.26
2019-03-22T03:43:13.625Z,17.27
2019-03-22T03:44:15.823Z,17.26
2019-03-22T03:45:18.039Z,17.27
2019-03-22T03:46:22.023Z,17.26
2019-03-22T03:47:24.225Z,17.26
2019-03-22T03:48:26.431Z,17.26
2019-03-22T03:49:28.652Z,17.26
2019-03-22T03:50:30.855Z,17.25
2019-03-22T03:51:33.065Z,17.25
2019-03-22T03:52:35.273Z,17.25
2019-03-22T03:53:37.465Z,17.25
2019-03-22T03:54:39.783Z,17.26
2019-03-22T03:55:41.988Z,17.25
2019-03-22T03:56:44.187Z,17.26
2019-03-22T03:57:46.378Z,17.26
2019-03-22T03:58:52.688Z,17.26
2019-03-22T03:59:52.473Z,17.25
2019-03-22T04:00:54.671Z,17.26
2019-03-22T04:01:56.889Z,17.25
2019-03-22T04:02:59.249Z,17.26
2019-03-22T04:04:01.453Z,17.25
2019-03-22T04:05:03.674Z,17.25
2019-03-22T04:06:05.979Z,17.26
2019-03-22T04:07:09.904Z,17.25
2019-03-22T04:08:12.112Z,17.25
2019-03-22T04:09:14.324Z,17.24
2019-03-22T04:10:16.518Z,17.24
2019-03-22T04:11:18.719Z,17.25
2019-03-22T04:12:22.931Z,17.24
2019-03-22T04:13:25.156Z,17.24
2019-03-22T04:14:27.349Z,17.24
2019-03-22T04:15:31.585Z,17.24
2019-03-22T04:16:33.787Z,17.24
2019-03-22T04:17:36.005Z,17.25
2019-03-22T04:18:38.201Z,17.24
2019-03-22T04:19:40.447Z,17.26
2019-03-22T04:20:45.634Z,17.24
2019-03-22T04:21:47.840Z,17.24
2019-03-22T04:22:50.059Z,17.24
2019-03-22T04:23:52.267Z,17.24
2019-03-22T04:24:54.495Z,17.23
2019-03-22T04:25:56.699Z,17.25
2019-03-22T04:26:58.916Z,17.24
2019-03-22T04:28:01.127Z,17.23
2019-03-22T04:29:07.892Z,17.24
2019-03-22T04:30:07.188Z,17.23
2019-03-22T04:31:09.384Z,17.23
2019-03-22T04:32:11.586Z,17.23
2019-03-22T04:33:13.793Z,17.25
2019-03-22T04:34:15.979Z,17.23
2019-03-22T04:35:18.210Z,17.24
2019-03-22T04:36:20.405Z,17.24
2019-03-22T04:37:22.587Z,17.23
2019-03-22T04:38:24.789Z,17.25
2019-03-22T04:39:26.984Z,17.23
2019-03-22T04:40:29.225Z,17.23
2019-03-22T04:41:31.433Z,17.24
2019-03-22T04:42:33.901Z,17.23
2019-03-22T04:43:36.145Z,17.24
2019-03-22T04:44:38.353Z,17.23
2019-03-22T04:45:40.566Z,17.24
2019-03-22T04:46:42.780Z,17.23
2019-03-22T04:47:46.156Z,17.23
2019-03-22T04:48:48.489Z,17.23
2019-03-22T04:49:50.694Z,17.23
2019-03-22T04:50:52.907Z,17.22
2019-03-22T04:51:55.107Z,17.23
2019-03-22T04:52:57.307Z,17.23
2019-03-22T04:53:59.522Z,17.23
2019-03-22T04:55:01.731Z,17.22
2019-03-22T04:56:03.956Z,17.22
2019-03-22T04:57:06.159Z,17.22
2019-03-22T04:58:08.373Z,17.23
2019-03-22T04:59:18.869Z,17.22
2019-03-22T05:00:14.434Z,17.23
2019-03-22T05:01:16.644Z,17.24
2019-03-22T05:02:18.850Z,17.22
2019-03-22T05:03:21.060Z,17.22
2019-03-22T05:04:23.260Z,17.22
2019-03-22T05:05:25.491Z,17.22
2019-03-22T05:06:27.703Z,17.22
2019-03-22T05:07:29.944Z,17.22
2019-03-22T05:08:32.155Z,17.22
2019-03-22T05:09:34.353Z,17.21
2019-03-22T05:10:36.757Z,17.21
2019-03-22T05:11:38.955Z,17.21
2019-03-22T05:12:41.351Z,17.21
2019-03-22T05:13:43.567Z,17.22
2019-03-22T05:14:45.871Z,17.22
2019-03-22T05:15:48.111Z,17.22
2019-03-22T05:16:50.315Z,17.21
2019-03-22T05:17:54.161Z,17.22
2019-03-22T05:18:56.365Z,17.22
2019-03-22T05:19:58.596Z,17.22
2019-03-22T05:21:00.797Z,17.21
2019-03-22T05:22:03.009Z,17.22
2019-03-22T05:23:05.270Z,17.21
2019-03-22T05:24:07.431Z,17.22
2019-03-22T05:25:09.649Z,17.21
2019-03-22T05:26:11.872Z,17.21
2019-03-22T05:27:14.093Z,17.21
2019-03-22T05:28:16.313Z,17.22
2019-03-22T05:29:29.864Z,17.22
2019-03-22T05:30:22.375Z,17.22
2019-03-22T05:31:24.583Z,17.21
2019-03-22T05:32:26.881Z,17.21
2019-03-22T05:33:29.093Z,17.20
2019-03-22T05:34:31.305Z,17.21
2019-03-22T05:35:36.162Z,17.21
2019-03-22T05:36:38.389Z,17.21
2019-03-22T05:37:40.591Z,17.20
2019-03-22T05:38:42.791Z,17.20
2019-03-22T05:39:45.001Z,17.20
2019-03-22T05:40:47.203Z,17.21
2019-03-22T05:41:51.321Z,17.21
2019-03-22T05:42:53.275Z,17.21
2019-03-22T05:43:55.593Z,17.21
2019-03-22T05:44:57.719Z,17.21
2019-03-22T05:45:59.937Z,17.21
2019-03-22T05:47:05.127Z,17.20
2019-03-22T05:48:07.317Z,17.20
2019-03-22T05:49:09.436Z,17.20
2019-03-22T05:50:11.637Z,17.21
2019-03-22T05:51:13.767Z,17.20
2019-03-22T05:52:15.981Z,17.20
2019-03-22T05:53:18.166Z,17.20
2019-03-22T05:54:20.375Z,17.21
2019-03-22T05:55:22.581Z,17.20
2019-03-22T05:56:24.790Z,17.20
2019-03-22T05:57:27.043Z,17.21
2019-03-22T05:58:29.274Z,17.20
2019-03-22T05:59:41.874Z,17.21
2019-03-22T06:00:36.543Z,17.20
2019-03-22T06:01:38.765Z,17.20
2019-03-22T06:02:40.999Z,17.21
2019-03-22T06:03:43.202Z,17.20
2019-03-22T06:04:45.407Z,17.20
2019-03-22T06:05:47.662Z,17.20
2019-03-22T06:06:49.877Z,17.20
2019-03-22T06:07:52.030Z,17.20
2019-03-22T06:08:54.504Z,17.20
2019-03-22T06:09:56.699Z,17.20
2019-03-22T06:10:58.902Z,17.20
2019-03-22T06:12:01.097Z,17.20
2019-03-22T06:13:03.320Z,17.20
2019-03-22T06:14:05.534Z,17.22
2019-03-22T06:15:07.718Z,17.20
2019-03-22T06:16:12.896Z,17.21
2019-03-22T06:17:15.121Z,17.20
2019-03-22T06:18:17.336Z,17.20
2019-03-22T06:19:19.544Z,17.20
2019-03-22T06:20:21.739Z,17.19
2019-03-22T06:21:23.943Z,17.21
2019-03-22T06:22:26.366Z,17.20
2019-03-22T06:23:28.575Z,17.21
2019-03-22T06:24:30.782Z,17.19
2019-03-22T06:25:32.985Z,17.19
2019-03-22T06:26:35.192Z,17.20
2019-03-22T06:27:37.417Z,17.20
2019-03-22T06:28:40.736Z,17.20
2019-03-22T06:29:53.648Z,17.19
2019-03-22T06:30:46.803Z,17.20
2019-03-22T06:31:49.074Z,17.20
2019-03-22T06:32:51.296Z,17.19
2019-03-22T06:33:53.510Z,17.20
2019-03-22T06:34:55.724Z,17.19
2019-03-22T06:35:57.918Z,17.20
2019-03-22T06:37:01.464Z,17.21
2019-03-22T06:38:03.715Z,17.20
2019-03-22T06:39:05.916Z,17.20
2019-03-22T06:40:08.137Z,17.20
2019-03-22T06:41:10.360Z,17.20
2019-03-22T06:42:12.552Z,17.19
2019-03-22T06:43:14.770Z,17.21
2019-03-22T06:44:16.988Z,17.20
2019-03-22T06:45:19.192Z,17.20
2019-03-22T06:46:21.410Z,17.20
2019-03-22T06:47:23.624Z,17.20
2019-03-22T06:48:25.832Z,17.20
2019-03-22T06:49:28.048Z,17.20
2019-03-22T06:50:30.267Z,17.20
2019-03-22T06:51:33.672Z,17.20
2019-03-22T06:52:35.788Z,17.20
2019-03-22T06:53:38.027Z,17.20
2019-03-22T06:54:40.241Z,17.20
2019-03-22T06:55:42.454Z,17.20
2019-03-22T06:56:44.786Z,17.20
2019-03-22T06:57:47.016Z,17.20
2019-03-22T06:58:49.223Z,17.21
2019-03-22T06:59:51.430Z,17.20
2019-03-22T07:00:55.431Z,17.20
2019-03-22T07:01:57.638Z,17.20
2019-03-22T07:02:59.874Z,17.21
2019-03-22T07:04:02.079Z,17.20
2019-03-22T07:05:04.299Z,17.20
2019-03-22T07:06:06.504Z,17.21
2019-03-22T07:07:08.712Z,17.20
2019-03-22T07:08:11.072Z,17.21
2019-03-22T07:09:13.292Z,17.20
2019-03-22T07:10:15.485Z,17.20
2019-03-22T07:11:17.815Z,17.20
2019-03-22T07:12:20.025Z,17.20
2019-03-22T07:13:22.230Z,17.20
2019-03-22T07:14:24.444Z,17.20
2019-03-22T07:15:26.663Z,17.20
2019-03-22T07:16:28.873Z,17.20
2019-03-22T07:17:31.076Z,17.21
2019-03-22T07:18:33.716Z,17.20
2019-03-22T07:19:35.968Z,17.20
2019-03-22T07:20:38.158Z,17.20
2019-03-22T07:21:40.358Z,17.20
2019-03-22T07:22:42.556Z,17.21
2019-03-22T07:23:44.782Z,17.20
2019-03-22T07:24:46.994Z,17.21
2019-03-22T07:25:49.188Z,17.21
2019-03-22T07:26:51.497Z,17.20
2019-03-22T07:27:53.727Z,17.20
2019-03-22T07:28:55.927Z,17.20
2019-03-22T07:30:00.911Z,17.21
2019-03-22T07:31:03.194Z,17.21
2019-03-22T07:32:05.397Z,17.20
2019-03-22T07:33:07.596Z,17.20
2019-03-22T07:34:09.994Z,17.20
2019-03-22T07:35:12.190Z,17.20
2019-03-22T07:36:14.408Z,17.21
2019-03-22T07:37:16.621Z,17.20
2019-03-22T07:38:18.839Z,17.21
2019-03-22T07:39:21.054Z,17.20
2019-03-22T07:40:23.268Z,17.21
2019-03-22T07:41:25.479Z,17.20
2019-03-22T07:42:31.290Z,17.21
2019-03-22T07:43:35.021Z,17.21
2019-03-22T07:44:37.242Z,17.21
2019-03-22T07:45:39.442Z,17.20
2019-03-22T07:46:41.572Z,17.20
2019-03-22T07:47:43.783Z,17.20
2019-03-22T07:48:46.003Z,17.21
2019-03-22T07:49:49.381Z,17.20
2019-03-22T07:50:51.549Z,17.20
2019-03-22T07:51:53.736Z,17.21
2019-03-22T07:52:55.946Z,17.21
2019-03-22T07:53:58.168Z,17.20
2019-03-22T07:55:00.432Z,17.21
2019-03-22T07:56:02.591Z,17.20
2019-03-22T07:57:04.800Z,17.21
2019-03-22T07:58:07.016Z,17.20
2019-03-22T07:59:09.946Z,17.21
2019-03-22T08:00:12.286Z,17.21
2019-03-22T08:01:14.497Z,17.20
2019-03-22T08:02:16.701Z,17.21
2019-03-22T08:03:18.899Z,17.20
2019-03-22T08:04:21.127Z,17.21
2019-03-22T08:05:23.337Z,17.21
2019-03-22T08:06:25.641Z,17.21
2019-03-22T08:07:27.839Z,17.22
2019-03-22T08:08:30.051Z,17.22
2019-03-22T08:09:32.287Z,17.21
2019-03-22T08:10:34.485Z,17.21
2019-03-22T08:11:38.272Z,17.21
2019-03-22T08:12:40.500Z,17.22
2019-03-22T08:13:42.681Z,17.22
2019-03-22T08:14:44.887Z,17.22
2019-03-22T08:15:47.093Z,17.21
2019-03-22T08:16:49.303Z,17.21
2019-03-22T08:17:51.850Z,17.21
2019-03-22T08:18:54.049Z,17.21
2019-03-22T08:19:57.355Z,17.21
2019-03-22T08:21:05.648Z,17.22
2019-03-22T08:22:06.822Z,17.21
2019-03-22T08:23:09.023Z,17.22
2019-03-22T08:24:11.183Z,17.21
2019-03-22T08:25:13.503Z,17.21
2019-03-22T08:26:15.723Z,17.21
2019-03-22T08:27:17.907Z,17.22
2019-03-22T08:28:20.041Z,17.21
2019-03-22T08:29:25.038Z,17.22
2019-03-22T08:30:27.254Z,17.22
2019-03-22T08:31:29.477Z,17.23
2019-03-22T08:32:32.943Z,17.23
2019-03-22T08:33:36.295Z,17.23
2019-03-22T08:34:38.527Z,17.23
2019-03-22T08:35:40.800Z,17.23
2019-03-22T08:36:43.033Z,17.23
2019-03-22T08:37:53.076Z,17.22
2019-03-22T08:38:55.373Z,17.27
2019-03-22T08:39:57.581Z,17.29
2019-03-22T08:40:59.833Z,17.30
2019-03-22T08:42:02.105Z,17.32
2019-03-22T08:43:04.575Z,17.36
2019-03-22T08:44:06.809Z,17.36
2019-03-22T08:45:11.239Z,17.39
2019-03-22T08:46:12.865Z,17.40
2019-03-22T08:47:15.174Z,17.40
2019-03-22T08:48:17.409Z,17.40
2019-03-22T08:49:19.616Z,17.40
2019-03-22T08:50:21.799Z,17.41
2019-03-22T08:51:24.251Z,17.40
2019-03-22T08:52:26.443Z,17.42
2019-03-22T08:53:28.637Z,17.41
2019-03-22T08:54:30.847Z,17.41
2019-03-22T08:55:33.057Z,17.42
2019-03-22T08:56:36.258Z,17.40
2019-03-22T08:57:38.652Z,17.41
2019-03-22T08:58:40.886Z,17.40
2019-03-22T08:59:43.089Z,17.40
2019-03-22T09:00:56.853Z,17.39
2019-03-22T09:01:49.147Z,17.38
2019-03-22T09:02:51.337Z,17.38
2019-03-22T09:03:56.439Z,17.36
2019-03-22T09:04:58.667Z,17.36
2019-03-22T09:06:01.049Z,17.38
2019-03-22T09:07:03.271Z,17.39
2019-03-22T09:08:05.483Z,17.38
2019-03-22T09:09:07.693Z,17.38
2019-03-22T09:10:09.883Z,17.38
2019-03-22T09:11:12.097Z,17.37
2019-03-22T09:12:14.336Z,17.35
2019-03-22T09:13:16.591Z,17.36
2019-03-22T09:14:18.796Z,17.36
2019-03-22T09:15:21.133Z,17.35
2019-03-22T09:16:23.341Z,17.36
2019-03-22T09:17:25.562Z,17.36
2019-03-22T09:18:29.447Z,17.36
2019-03-22T09:19:31.713Z,17.39
2019-03-22T09:20:33.917Z,17.41
2019-03-22T09:21:36.113Z,17.41
2019-03-22T09:22:38.367Z,17.42
2019-03-22T09:23:40.535Z,17.43
2019-03-22T09:24:42.783Z,17.42
2019-03-22T09:25:45.007Z,17.43
2019-03-22T09:26:48.128Z,17.43
2019-03-22T09:27:50.405Z,17.44
2019-03-22T09:28:52.646Z,17.42
2019-03-22T09:29:54.924Z,17.44
2019-03-22T09:31:09.440Z,17.43
2019-03-22T09:32:01.151Z,17.45
2019-03-22T09:33:03.310Z,17.45
2019-03-22T09:34:05.521Z,17.45
2019-03-22T09:35:07.733Z,17.45
2019-03-22T09:36:09.920Z,17.45
2019-03-22T09:37:12.142Z,17.45
2019-03-22T09:38:14.341Z,17.46
2019-03-22T09:39:16.612Z,17.46
2019-03-22T09:40:18.795Z,17.45
2019-03-22T09:41:21.057Z,17.46
2019-03-22T09:42:24.882Z,17.47
2019-03-22T09:43:30.013Z,17.46
2019-03-22T09:44:42.776Z,17.47
2019-03-22T09:45:36.043Z,17.47
2019-03-22T09:46:38.229Z,17.48
2019-03-22T09:47:40.462Z,17.48
2019-03-22T09:48:42.649Z,17.47
2019-03-22T09:49:45.082Z,17.48
2019-03-22T09:50:47.289Z,17.48
2019-03-22T09:51:49.462Z,17.48
2019-03-22T09:52:51.658Z,17.50
2019-03-22T09:53:55.966Z,17.53
2019-03-22T09:54:57.815Z,17.50
2019-03-22T09:56:00.043Z,17.51
2019-03-22T09:57:02.246Z,17.54
2019-03-22T09:58:04.427Z,17.53
2019-03-22T09:59:06.658Z,17.53
2019-03-22T10:00:08.894Z,17.52
2019-03-22T10:01:23.135Z,17.51
2019-03-22T10:02:14.944Z,17.51
2019-03-22T10:03:17.187Z,17.54
2019-03-22T10:04:19.363Z,17.55
2019-03-22T10:05:21.595Z,17.56
2019-03-22T10:06:23.808Z,17.54
2019-03-22T10:07:26.001Z,17.52
2019-03-22T10:08:28.230Z,17.51
2019-03-22T10:09:30.395Z,17.47
2019-03-22T10:10:32.629Z,17.46
2019-03-22T10:11:35.067Z,17.45
2019-03-22T10:12:39.284Z,17.45
2019-03-22T10:13:41.463Z,17.44
2019-03-22T10:14:43.689Z,17.49
2019-03-22T10:15:45.899Z,17.53
2019-03-22T10:16:48.133Z,17.51
2019-03-22T10:17:50.408Z,17.52
2019-03-22T10:18:52.638Z,17.51
2019-03-22T10:19:54.851Z,17.51
2019-03-22T10:20:57.036Z,17.53
2019-03-22T10:21:59.228Z,17.53
2019-03-22T10:23:01.483Z,17.53
2019-03-22T10:24:03.882Z,17.54
2019-03-22T10:25:09.034Z,17.54
2019-03-22T10:26:11.255Z,17.53
2019-03-22T10:27:13.492Z,17.54
2019-03-22T10:28:15.688Z,17.55
2019-03-22T10:29:17.890Z,17.56
2019-03-22T10:30:20.124Z,17.57
2019-03-22T10:31:22.307Z,17.61
2019-03-22T10:32:24.546Z,17.59
2019-03-22T10:33:26.829Z,17.57
2019-03-22T10:34:29.079Z,17.56
2019-03-22T10:35:31.327Z,17.57
2019-03-22T10:36:33.494Z,17.56
2019-03-22T10:37:35.780Z,17.57
2019-03-22T10:38:38.155Z,17.56
2019-03-22T10:39:40.425Z,17.57
2019-03-22T10:40:42.598Z,17.57
2019-03-22T10:41:44.771Z,17.56
2019-03-22T10:42:47.129Z,17.58
2019-03-22T10:43:49.418Z,17.57
2019-03-22T10:44:51.680Z,17.57
2019-03-22T10:45:53.923Z,17.57
2019-03-22T10:46:56.172Z,17.58
2019-03-22T10:47:58.399Z,17.58
2019-03-22T10:49:00.603Z,17.58
2019-03-22T10:50:02.838Z,17.58
2019-03-22T10:51:05.165Z,17.56
2019-03-22T10:52:10.144Z,17.58
2019-03-22T10:53:12.346Z,17.60
2019-03-22T10:54:17.467Z,17.58
2019-03-22T10:55:29.861Z,17.60
2019-03-22T10:56:24.975Z,17.59
2019-03-22T10:57:27.351Z,17.59
2019-03-22T10:58:29.569Z,17.59
2019-03-22T10:59:31.707Z,17.60
2019-03-22T11:00:33.910Z,17.59
2019-03-22T11:01:48.256Z,17.60
2019-03-22T11:02:39.985Z,17.60
2019-03-22T11:03:42.217Z,17.59
2019-03-22T11:04:44.403Z,17.61
2019-03-22T11:05:46.619Z,17.60
2019-03-22T11:06:48.853Z,17.60
2019-03-22T11:07:51.056Z,17.61
2019-03-22T11:08:53.263Z,17.61
2019-03-22T11:09:55.487Z,17.62
2019-03-22T11:10:57.737Z,17.61
2019-03-22T11:11:59.984Z,17.60
2019-03-22T11:13:02.163Z,17.61
2019-03-22T11:14:04.391Z,17.62
2019-03-22T11:15:06.614Z,17.62
2019-03-22T11:16:08.839Z,17.63
2019-03-22T11:17:11.063Z,17.61
2019-03-22T11:18:13.312Z,17.62
2019-03-22T11:19:16.689Z,17.63
2019-03-22T11:20:18.914Z,17.62
2019-03-22T11:21:21.138Z,17.64
2019-03-22T11:22:23.343Z,17.63
2019-03-22T11:23:25.565Z,17.64
2019-03-22T11:24:27.919Z,17.66
2019-03-22T11:25:30.125Z,17.65
2019-03-22T11:26:32.316Z,17.64
2019-03-22T11:27:34.525Z,17.64
2019-03-22T11:28:36.741Z,17.65
2019-03-22T11:29:39.113Z,17.67
2019-03-22T11:30:43.661Z,17.67
2019-03-22T11:31:45.898Z,17.65
2019-03-22T11:32:48.102Z,17.65
2019-03-22T11:33:50.307Z,17.68
2019-03-22T11:34:52.533Z,17.67
2019-03-22T11:35:54.731Z,17.66
2019-03-22T11:36:56.973Z,17.68
2019-03-22T11:37:59.194Z,17.67
2019-03-22T11:39:01.407Z,17.65
2019-03-22T11:40:03.635Z,17.65
2019-03-22T11:41:05.945Z,17.66
2019-03-22T11:42:08.155Z,17.68
2019-03-22T11:43:10.356Z,17.67
2019-03-22T11:44:12.566Z,17.67
2019-03-22T11:45:17.514Z,17.65
2019-03-22T11:46:19.729Z,17.70
2019-03-22T11:47:21.947Z,17.68
2019-03-22T11:48:24.149Z,17.66
2019-03-22T11:49:26.355Z,17.63
2019-03-22T11:50:29.100Z,17.62
2019-03-22T11:51:33.169Z,17.62
2019-03-22T11:52:35.384Z,17.59
2019-03-22T11:53:37.713Z,17.59
2019-03-22T11:54:42.671Z,17.58
2019-03-22T11:55:44.885Z,17.58
2019-03-22T11:56:47.120Z,17.58
2019-03-22T11:57:49.421Z,17.58
2019-03-22T11:58:51.579Z,17.57
2019-03-22T11:59:53.777Z,17.56
2019-03-22T12:00:55.981Z,17.57
2019-03-22T12:01:58.294Z,17.57
2019-03-22T12:03:00.495Z,17.57
2019-03-22T12:04:02.699Z,17.57
2019-03-22T12:05:04.903Z,17.57
2019-03-22T12:06:07.102Z,17.57
2019-03-22T12:07:09.319Z,17.56
2019-03-22T12:08:11.542Z,17.57
2019-03-22T12:09:13.753Z,17.57
2019-03-22T12:10:15.958Z,17.57
2019-03-22T12:11:18.109Z,17.57
2019-03-22T12:12:20.327Z,17.56
2019-03-22T12:13:22.539Z,17.56
2019-03-22T12:14:24.742Z,17.56
2019-03-22T12:15:26.948Z,17.56
2019-03-22T12:16:29.153Z,17.56
2019-03-22T12:17:31.309Z,17.56
2019-03-22T12:18:33.521Z,17.56
2019-03-22T12:19:35.713Z,17.56
2019-03-22T12:20:38.107Z,17.56
2019-03-22T12:21:40.308Z,17.56
2019-03-22T12:22:42.531Z,17.56
2019-03-22T12:23:44.732Z,17.56
2019-03-22T12:24:46.962Z,17.56
2019-03-22T12:25:49.179Z,17.56
2019-03-22T12:26:51.399Z,17.55
2019-03-22T12:27:53.629Z,17.56
2019-03-22T12:28:55.778Z,17.55
2019-03-22T12:29:57.968Z,17.56
2019-03-22T12:31:00.155Z,17.56
2019-03-22T12:32:02.412Z,17.55
2019-03-22T12:33:04.616Z,17.56
2019-03-22T12:34:06.858Z,17.55
2019-03-22T12:35:10.702Z,17.56
2019-03-22T12:36:12.934Z,17.55
2019-03-22T12:37:15.192Z,17.62
2019-03-22T12:38:17.406Z,17.63
2019-03-22T12:39:19.618Z,17.63
2019-03-22T12:40:21.832Z,17.66
2019-03-22T12:41:24.048Z,17.70
2019-03-22T12:42:26.294Z,17.68
2019-03-22T12:43:28.502Z,17.69
2019-03-22T12:44:30.680Z,17.69
2019-03-22T12:45:32.958Z,17.72
2019-03-22T12:46:35.156Z,17.71
2019-03-22T12:47:37.390Z,17.74
2019-03-22T12:48:39.604Z,17.72
2019-03-22T12:49:41.817Z,17.71
2019-03-22T12:50:44.011Z,17.72
2019-03-22T12:51:46.226Z,17.73
2019-03-22T12:52:48.436Z,17.73
2019-03-22T12:53:50.652Z,17.74
2019-03-22T12:54:52.868Z,17.74
2019-03-22T12:55:57.092Z,17.73
2019-03-22T12:56:58.942Z,17.72
2019-03-22T12:58:04.233Z,17.73
2019-03-22T12:59:06.432Z,17.78
2019-03-22T13:00:08.644Z,17.77
2019-03-22T13:01:10.841Z,17.76
2019-03-22T13:02:12.976Z,17.77
2019-03-22T13:03:15.206Z,17.80
2019-03-22T13:04:17.404Z,17.77
2019-03-22T13:05:22.486Z,17.75
2019-03-22T13:06:24.702Z,17.77
2019-03-22T13:07:26.926Z,17.75
2019-03-22T13:08:29.148Z,17.75
2019-03-22T13:09:31.338Z,17.78
2019-03-22T13:10:33.466Z,17.78
2019-03-22T13:11:35.685Z,17.77
2019-03-22T13:12:37.912Z,17.77
2019-03-22T13:13:40.120Z,17.77
2019-03-22T13:14:42.311Z,17.77
2019-03-22T13:15:44.518Z,17.75
2019-03-22T13:16:46.805Z,17.73
2019-03-22T13:17:48.977Z,17.71
2019-03-22T13:18:51.189Z,17.70
2019-03-22T13:19:53.399Z,17.70
2019-03-22T13:20:55.586Z,17.68
2019-03-22T13:21:57.810Z,17.68
2019-03-22T13:23:00.070Z,17.66
2019-03-22T13:24:02.276Z,17.67